sensor_id;sensor_type;location;lat;lon;timestamp;P1;durP1;ratioP1;P2;durP2;ratioP2
45684;SDS011;46836;48.388;16.210;2023-08-30T00:01:37;3.30;;;3.10;;
45684;SDS011;46836;48.388;16.210;2023-08-30T00:04:04;3.60;;;3.30;;
45684;SDS011;46836;48.388;16.210;2023-08-30T00:06:31;3.70;;;3.40;;
45684;SDS011;46836;48.388;16.210;2023-08-30T00:08:58;3.70;;;3.47;;
45684;SDS011;46836;48.388;16.210;2023-08-30T00:11:25;3.87;;;3.57;;
45684;SDS011;46836;48.388;16.210;2023-08-30T00:14:01;3.20;;;3.00;;
45684;SDS011;46836;48.388;16.210;2023-08-30T00:16:32;3.40;;;3.20;;
45684;SDS011;46836;48.388;16.210;2023-08-30T00:19:00;3.70;;;3.50;;
45684;SDS011;46836;48.388;16.210;2023-08-30T00:21:27;3.37;;;3.07;;
45684;SDS011;46836;48.388;16.210;2023-08-30T00:23:54;4.03;;;3.73;;
45684;SDS011;46836;48.388;16.210;2023-08-30T00:26:21;3.97;;;3.70;;
45684;SDS011;46836;48.388;16.210;2023-08-30T00:28:48;3.97;;;3.67;;
45684;SDS011;46836;48.388;16.210;2023-08-30T00:31:16;4.13;;;3.83;;
45684;SDS011;46836;48.388;16.210;2023-08-30T00:33:43;3.43;;;3.13;;
45684;SDS011;46836;48.388;16.210;2023-08-30T00:36:10;3.83;;;3.53;;
45684;SDS011;46836;48.388;16.210;2023-08-30T00:38:37;3.47;;;3.20;;
45684;SDS011;46836;48.388;16.210;2023-08-30T00:41:04;6.93;;;3.50;;
45684;SDS011;46836;48.388;16.210;2023-08-30T00:43:31;2.80;;;2.60;;
45684;SDS011;46836;48.388;16.210;2023-08-30T00:45:58;3.17;;;2.97;;
45684;SDS011;46836;48.388;16.210;2023-08-30T00:48:26;4.30;;;3.90;;
45684;SDS011;46836;48.388;16.210;2023-08-30T00:50:54;4.47;;;3.30;;
45684;SDS011;46836;48.388;16.210;2023-08-30T00:53:21;3.80;;;3.50;;
45684;SDS011;46836;48.388;16.210;2023-08-30T00:55:48;4.07;;;3.77;;
45684;SDS011;46836;48.388;16.210;2023-08-30T00:58:15;3.60;;;3.30;;
45684;SDS011;46836;48.388;16.210;2023-08-30T01:00:43;3.70;;;3.47;;
45684;SDS011;46836;48.388;16.210;2023-08-30T01:03:10;3.73;;;3.43;;
45684;SDS011;46836;48.388;16.210;2023-08-30T01:05:37;3.23;;;3.00;;
45684;SDS011;46836;48.388;16.210;2023-08-30T01:08:04;3.60;;;3.30;;
45684;SDS011;46836;48.388;16.210;2023-08-30T01:13:39;4.00;;;3.60;;
45684;SDS011;46836;48.388;16.210;2023-08-30T01:16:11;3.60;;;3.40;;
45684;SDS011;46836;48.388;16.210;2023-08-30T01:18:38;3.30;;;3.10;;
45684;SDS011;46836;48.388;16.210;2023-08-30T01:21:09;3.80;;;3.50;;
45684;SDS011;46836;48.388;16.210;2023-08-30T01:23:49;4.30;;;2.97;;
45684;SDS011;46836;48.388;16.210;2023-08-30T01:29:07;3.43;;;3.23;;
45684;SDS011;46836;48.388;16.210;2023-08-30T01:31:37;3.97;;;3.67;;
45684;SDS011;46836;48.388;16.210;2023-08-30T01:34:07;4.83;;;3.83;;
45684;SDS011;46836;48.388;16.210;2023-08-30T01:36:35;3.83;;;3.40;;
45684;SDS011;46836;48.388;16.210;2023-08-30T01:39:02;3.60;;;3.30;;
45684;SDS011;46836;48.388;16.210;2023-08-30T01:41:31;3.70;;;3.33;;
45684;SDS011;46836;48.388;16.210;2023-08-30T01:44:01;9.13;;;3.13;;
45684;SDS011;46836;48.388;16.210;2023-08-30T01:46:32;5.70;;;3.63;;
45684;SDS011;46836;48.388;16.210;2023-08-30T01:49:01;3.70;;;3.40;;
45684;SDS011;46836;48.388;16.210;2023-08-30T01:51:30;4.67;;;3.70;;
45684;SDS011;46836;48.388;16.210;2023-08-30T01:53:59;3.40;;;3.20;;
45684;SDS011;46836;48.388;16.210;2023-08-30T01:56:27;3.90;;;3.60;;
45684;SDS011;46836;48.388;16.210;2023-08-30T01:58:54;4.00;;;3.70;;
45684;SDS011;46836;48.388;16.210;2023-08-30T02:01:21;3.60;;;3.40;;
45684;SDS011;46836;48.388;16.210;2023-08-30T02:03:48;3.70;;;3.30;;
45684;SDS011;46836;48.388;16.210;2023-08-30T02:06:21;4.13;;;3.73;;
45684;SDS011;46836;48.388;16.210;2023-08-30T02:08:55;3.97;;;3.63;;
45684;SDS011;46836;48.388;16.210;2023-08-30T02:11:32;3.60;;;3.30;;
45684;SDS011;46836;48.388;16.210;2023-08-30T02:14:00;4.10;;;3.70;;
45684;SDS011;46836;48.388;16.210;2023-08-30T02:16:33;4.27;;;3.97;;
45684;SDS011;46836;48.388;16.210;2023-08-30T02:19:01;3.80;;;3.60;;
45684;SDS011;46836;48.388;16.210;2023-08-30T02:21:29;3.57;;;3.27;;
45684;SDS011;46836;48.388;16.210;2023-08-30T02:23:56;3.70;;;3.50;;
45684;SDS011;46836;48.388;16.210;2023-08-30T02:26:23;3.97;;;3.67;;
45684;SDS011;46836;48.388;16.210;2023-08-30T02:28:50;4.43;;;4.03;;
45684;SDS011;46836;48.388;16.210;2023-08-30T02:31:17;5.30;;;3.90;;
45684;SDS011;46836;48.388;16.210;2023-08-30T02:33:44;4.23;;;3.80;;
45684;SDS011;46836;48.388;16.210;2023-08-30T02:36:11;3.77;;;3.47;;
45684;SDS011;46836;48.388;16.210;2023-08-30T02:38:38;4.30;;;4.00;;
45684;SDS011;46836;48.388;16.210;2023-08-30T02:41:05;3.97;;;3.67;;
45684;SDS011;46836;48.388;16.210;2023-08-30T02:43:33;4.13;;;3.77;;
45684;SDS011;46836;48.388;16.210;2023-08-30T02:46:00;3.20;;;3.00;;
45684;SDS011;46836;48.388;16.210;2023-08-30T02:48:28;5.23;;;4.40;;
45684;SDS011;46836;48.388;16.210;2023-08-30T02:50:55;4.17;;;3.87;;
45684;SDS011;46836;48.388;16.210;2023-08-30T02:53:22;3.97;;;3.33;;
45684;SDS011;46836;48.388;16.210;2023-08-30T02:55:49;3.43;;;3.13;;
45684;SDS011;46836;48.388;16.210;2023-08-30T02:58:16;5.60;;;3.20;;
45684;SDS011;46836;48.388;16.210;2023-08-30T03:00:43;3.40;;;3.10;;
45684;SDS011;46836;48.388;16.210;2023-08-30T03:03:10;3.83;;;3.53;;
45684;SDS011;46836;48.388;16.210;2023-08-30T03:05:38;3.30;;;3.00;;
45684;SDS011;46836;48.388;16.210;2023-08-30T03:08:05;4.23;;;3.67;;
45684;SDS011;46836;48.388;16.210;2023-08-30T03:10:33;4.13;;;3.60;;
45684;SDS011;46836;48.388;16.210;2023-08-30T03:13:00;3.53;;;3.30;;
45684;SDS011;46836;48.388;16.210;2023-08-30T03:15:27;3.83;;;3.57;;
45684;SDS011;46836;48.388;16.210;2023-08-30T03:17:57;3.50;;;3.30;;
45684;SDS011;46836;48.388;16.210;2023-08-30T03:20:24;3.80;;;3.50;;
45684;SDS011;46836;48.388;16.210;2023-08-30T03:22:51;4.10;;;3.80;;
45684;SDS011;46836;48.388;16.210;2023-08-30T03:25:18;3.90;;;3.60;;
45684;SDS011;46836;48.388;16.210;2023-08-30T03:27:45;4.20;;;3.90;;
45684;SDS011;46836;48.388;16.210;2023-08-30T03:30:12;4.40;;;4.10;;
45684;SDS011;46836;48.388;16.210;2023-08-30T03:32:40;4.10;;;3.77;;
45684;SDS011;46836;48.388;16.210;2023-08-30T03:35:07;3.57;;;3.30;;
45684;SDS011;46836;48.388;16.210;2023-08-30T03:37:34;5.27;;;3.20;;
45684;SDS011;46836;48.388;16.210;2023-08-30T03:40:02;4.07;;;3.77;;
45684;SDS011;46836;48.388;16.210;2023-08-30T03:42:31;3.53;;;3.30;;
45684;SDS011;46836;48.388;16.210;2023-08-30T03:44:58;4.10;;;3.67;;
45684;SDS011;46836;48.388;16.210;2023-08-30T03:47:25;4.13;;;3.83;;
45684;SDS011;46836;48.388;16.210;2023-08-30T03:49:52;3.90;;;3.60;;
45684;SDS011;46836;48.388;16.210;2023-08-30T03:52:19;4.10;;;3.80;;
45684;SDS011;46836;48.388;16.210;2023-08-30T03:54:46;4.53;;;3.40;;
45684;SDS011;46836;48.388;16.210;2023-08-30T03:57:13;3.90;;;3.60;;
45684;SDS011;46836;48.388;16.210;2023-08-30T03:59:40;4.00;;;3.70;;
45684;SDS011;46836;48.388;16.210;2023-08-30T04:02:07;3.83;;;3.53;;
45684;SDS011;46836;48.388;16.210;2023-08-30T04:04:34;3.97;;;3.27;;
45684;SDS011;46836;48.388;16.210;2023-08-30T04:07:01;3.83;;;3.53;;
45684;SDS011;46836;48.388;16.210;2023-08-30T04:09:28;4.40;;;4.10;;
45684;SDS011;46836;48.388;16.210;2023-08-30T04:11:55;4.40;;;4.10;;
45684;SDS011;46836;48.388;16.210;2023-08-30T04:14:24;4.80;;;4.50;;
45684;SDS011;46836;48.388;16.210;2023-08-30T04:16:51;4.20;;;3.90;;
45684;SDS011;46836;48.388;16.210;2023-08-30T04:19:19;5.03;;;4.63;;
45684;SDS011;46836;48.388;16.210;2023-08-30T04:21:46;4.30;;;4.00;;
45684;SDS011;46836;48.388;16.210;2023-08-30T04:24:13;4.63;;;4.23;;
45684;SDS011;46836;48.388;16.210;2023-08-30T04:26:41;4.57;;;4.17;;
45684;SDS011;46836;48.388;16.210;2023-08-30T04:29:08;5.03;;;4.53;;
45684;SDS011;46836;48.388;16.210;2023-08-30T04:31:35;4.07;;;3.70;;
45684;SDS011;46836;48.388;16.210;2023-08-30T04:34:02;4.37;;;4.07;;
45684;SDS011;46836;48.388;16.210;2023-08-30T04:36:29;4.10;;;3.80;;
45684;SDS011;46836;48.388;16.210;2023-08-30T04:38:56;4.80;;;4.40;;
45684;SDS011;46836;48.388;16.210;2023-08-30T04:41:30;4.00;;;3.47;;
45684;SDS011;46836;48.388;16.210;2023-08-30T04:44:00;4.70;;;4.30;;
45684;SDS011;46836;48.388;16.210;2023-08-30T04:46:27;4.30;;;4.00;;
45684;SDS011;46836;48.388;16.210;2023-08-30T04:48:54;4.63;;;4.23;;
45684;SDS011;46836;48.388;16.210;2023-08-30T04:51:21;7.40;;;4.70;;
45684;SDS011;46836;48.388;16.210;2023-08-30T04:53:48;7.10;;;4.77;;
45684;SDS011;46836;48.388;16.210;2023-08-30T04:56:15;4.37;;;4.00;;
45684;SDS011;46836;48.388;16.210;2023-08-30T04:58:44;5.97;;;4.37;;
45684;SDS011;46836;48.388;16.210;2023-08-30T05:01:11;4.47;;;4.07;;
45684;SDS011;46836;48.388;16.210;2023-08-30T05:03:40;4.57;;;3.80;;
45684;SDS011;46836;48.388;16.210;2023-08-30T05:06:07;3.93;;;3.40;;
45684;SDS011;46836;48.388;16.210;2023-08-30T05:08:34;4.47;;;4.13;;
45684;SDS011;46836;48.388;16.210;2023-08-30T05:11:01;4.30;;;4.00;;
45684;SDS011;46836;48.388;16.210;2023-08-30T05:13:32;4.70;;;4.30;;
45684;SDS011;46836;48.388;16.210;2023-08-30T05:15:59;5.17;;;4.40;;
45684;SDS011;46836;48.388;16.210;2023-08-30T05:18:26;4.70;;;3.77;;
45684;SDS011;46836;48.388;16.210;2023-08-30T05:20:53;3.93;;;3.63;;
45684;SDS011;46836;48.388;16.210;2023-08-30T05:23:20;4.13;;;3.83;;
45684;SDS011;46836;48.388;16.210;2023-08-30T05:25:47;5.00;;;3.97;;
45684;SDS011;46836;48.388;16.210;2023-08-30T05:28:14;4.90;;;4.50;;
45684;SDS011;46836;48.388;16.210;2023-08-30T05:30:42;4.40;;;4.00;;
45684;SDS011;46836;48.388;16.210;2023-08-30T05:33:10;4.40;;;4.00;;
45684;SDS011;46836;48.388;16.210;2023-08-30T05:35:37;4.20;;;3.90;;
45684;SDS011;46836;48.388;16.210;2023-08-30T05:38:04;4.50;;;4.10;;
45684;SDS011;46836;48.388;16.210;2023-08-30T05:40:32;4.87;;;4.23;;
45684;SDS011;46836;48.388;16.210;2023-08-30T05:42:59;4.63;;;4.20;;
45684;SDS011;46836;48.388;16.210;2023-08-30T05:45:26;12.93;;;4.97;;
45684;SDS011;46836;48.388;16.210;2023-08-30T05:47:53;5.80;;;3.60;;
45684;SDS011;46836;48.388;16.210;2023-08-30T05:50:20;4.60;;;4.20;;
45684;SDS011;46836;48.388;16.210;2023-08-30T05:52:47;4.30;;;3.60;;
45684;SDS011;46836;48.388;16.210;2023-08-30T05:55:14;3.87;;;3.57;;
45684;SDS011;46836;48.388;16.210;2023-08-30T05:57:41;5.40;;;4.50;;
45684;SDS011;46836;48.388;16.210;2023-08-30T06:00:08;4.57;;;4.17;;
45684;SDS011;46836;48.388;16.210;2023-08-30T06:02:36;6.97;;;4.77;;
45684;SDS011;46836;48.388;16.210;2023-08-30T06:05:03;6.20;;;3.80;;
45684;SDS011;46836;48.388;16.210;2023-08-30T06:07:30;4.40;;;3.97;;
45684;SDS011;46836;48.388;16.210;2023-08-30T06:09:57;8.23;;;3.60;;
45684;SDS011;46836;48.388;16.210;2023-08-30T06:12:24;4.73;;;4.13;;
45684;SDS011;46836;48.388;16.210;2023-08-30T06:14:52;4.60;;;4.20;;
45684;SDS011;46836;48.388;16.210;2023-08-30T06:17:19;5.17;;;4.40;;
45684;SDS011;46836;48.388;16.210;2023-08-30T06:19:46;4.70;;;4.30;;
45684;SDS011;46836;48.388;16.210;2023-08-30T06:22:14;4.40;;;4.00;;
45684;SDS011;46836;48.388;16.210;2023-08-30T06:24:41;4.57;;;4.17;;
45684;SDS011;46836;48.388;16.210;2023-08-30T06:27:08;5.13;;;4.70;;
45684;SDS011;46836;48.388;16.210;2023-08-30T06:29:35;5.47;;;4.70;;
45684;SDS011;46836;48.388;16.210;2023-08-30T06:32:03;4.37;;;3.97;;
45684;SDS011;46836;48.388;16.210;2023-08-30T06:34:31;6.23;;;5.20;;
45684;SDS011;46836;48.388;16.210;2023-08-30T06:36:58;10.97;;;5.00;;
45684;SDS011;46836;48.388;16.210;2023-08-30T06:39:25;5.40;;;4.87;;
45684;SDS011;46836;48.388;16.210;2023-08-30T06:41:58;5.33;;;4.93;;
45684;SDS011;46836;48.388;16.210;2023-08-30T06:44:25;5.43;;;4.77;;
45684;SDS011;46836;48.388;16.210;2023-08-30T06:46:52;5.23;;;4.83;;
45684;SDS011;46836;48.388;16.210;2023-08-30T06:49:20;4.93;;;4.53;;
45684;SDS011;46836;48.388;16.210;2023-08-30T06:51:47;4.87;;;4.50;;
45684;SDS011;46836;48.388;16.210;2023-08-30T06:54:15;5.00;;;4.60;;
45684;SDS011;46836;48.388;16.210;2023-08-30T06:56:45;5.13;;;4.73;;
45684;SDS011;46836;48.388;16.210;2023-08-30T06:59:26;4.57;;;4.27;;
45684;SDS011;46836;48.388;16.210;2023-08-30T07:01:54;4.40;;;4.10;;
45684;SDS011;46836;48.388;16.210;2023-08-30T07:04:21;5.37;;;3.70;;
45684;SDS011;46836;48.388;16.210;2023-08-30T07:06:48;4.50;;;4.20;;
45684;SDS011;46836;48.388;16.210;2023-08-30T07:09:17;4.40;;;4.10;;
45684;SDS011;46836;48.388;16.210;2023-08-30T07:11:47;4.00;;;3.70;;
45684;SDS011;46836;48.388;16.210;2023-08-30T07:14:14;4.00;;;3.70;;
45684;SDS011;46836;48.388;16.210;2023-08-30T07:16:42;6.87;;;3.80;;
45684;SDS011;46836;48.388;16.210;2023-08-30T07:19:11;3.67;;;3.20;;
45684;SDS011;46836;48.388;16.210;2023-08-30T07:21:38;3.67;;;3.37;;
45684;SDS011;46836;48.388;16.210;2023-08-30T07:24:08;3.53;;;3.10;;
45684;SDS011;46836;48.388;16.210;2023-08-30T07:26:35;3.70;;;3.40;;
45684;SDS011;46836;48.388;16.210;2023-08-30T07:29:03;3.80;;;3.43;;
45684;SDS011;46836;48.388;16.210;2023-08-30T07:31:33;2.50;;;2.20;;
45684;SDS011;46836;48.388;16.210;2023-08-30T07:34:00;2.20;;;2.00;;
45684;SDS011;46836;48.388;16.210;2023-08-30T07:36:28;1.83;;;1.73;;
45684;SDS011;46836;48.388;16.210;2023-08-30T07:39:12;4.80;;;1.80;;
45684;SDS011;46836;48.388;16.210;2023-08-30T07:41:40;1.90;;;1.80;;
45684;SDS011;46836;48.388;16.210;2023-08-30T07:44:07;1.70;;;1.60;;
45684;SDS011;46836;48.388;16.210;2023-08-30T07:46:34;1.67;;;1.57;;
45684;SDS011;46836;48.388;16.210;2023-08-30T07:49:01;1.50;;;1.40;;
45684;SDS011;46836;48.388;16.210;2023-08-30T07:51:29;2.00;;;1.90;;
45684;SDS011;46836;48.388;16.210;2023-08-30T07:53:56;4.57;;;1.50;;
45684;SDS011;46836;48.388;16.210;2023-08-30T07:56:23;1.70;;;1.53;;
45684;SDS011;46836;48.388;16.210;2023-08-30T07:58:50;1.70;;;1.60;;
45684;SDS011;46836;48.388;16.210;2023-08-30T08:01:17;1.40;;;1.30;;
45684;SDS011;46836;48.388;16.210;2023-08-30T08:03:44;9.73;;;1.80;;
45684;SDS011;46836;48.388;16.210;2023-08-30T08:06:31;1.67;;;1.57;;
45684;SDS011;46836;48.388;16.210;2023-08-30T08:09:00;1.47;;;1.37;;
45684;SDS011;46836;48.388;16.210;2023-08-30T08:11:27;1.53;;;1.43;;
45684;SDS011;46836;48.388;16.210;2023-08-30T08:13:54;1.97;;;1.43;;
45684;SDS011;46836;48.388;16.210;2023-08-30T08:16:21;1.40;;;1.30;;
45684;SDS011;46836;48.388;16.210;2023-08-30T08:18:48;1.10;;;1.10;;
45684;SDS011;46836;48.388;16.210;2023-08-30T08:21:17;1.40;;;1.30;;
45684;SDS011;46836;48.388;16.210;2023-08-30T08:23:44;1.47;;;1.37;;
45684;SDS011;46836;48.388;16.210;2023-08-30T08:26:13;1.50;;;1.40;;
45684;SDS011;46836;48.388;16.210;2023-08-30T08:28:40;1.60;;;1.50;;
45684;SDS011;46836;48.388;16.210;2023-08-30T08:31:08;1.50;;;1.40;;
45684;SDS011;46836;48.388;16.210;2023-08-30T08:33:35;1.17;;;1.17;;
45684;SDS011;46836;48.388;16.210;2023-08-30T08:36:02;1.60;;;1.50;;
45684;SDS011;46836;48.388;16.210;2023-08-30T08:38:30;1.30;;;1.20;;
45684;SDS011;46836;48.388;16.210;2023-08-30T08:41:04;1.63;;;1.03;;
45684;SDS011;46836;48.388;16.210;2023-08-30T08:43:32;5.23;;;1.67;;
45684;SDS011;46836;48.388;16.210;2023-08-30T08:46:03;3.70;;;2.10;;
45684;SDS011;46836;48.388;16.210;2023-08-30T08:48:33;1.30;;;1.20;;
45684;SDS011;46836;48.388;16.210;2023-08-30T08:51:06;2.50;;;1.13;;
45684;SDS011;46836;48.388;16.210;2023-08-30T08:53:33;1.40;;;1.30;;
45684;SDS011;46836;48.388;16.210;2023-08-30T08:56:00;1.50;;;1.40;;
45684;SDS011;46836;48.388;16.210;2023-08-30T08:58:28;1.10;;;1.10;;
45684;SDS011;46836;48.388;16.210;2023-08-30T09:00:56;1.47;;;1.37;;
45684;SDS011;46836;48.388;16.210;2023-08-30T09:03:24;1.20;;;1.20;;
45684;SDS011;46836;48.388;16.210;2023-08-30T09:05:52;1.30;;;1.20;;
45684;SDS011;46836;48.388;16.210;2023-08-30T09:08:19;1.53;;;1.43;;
45684;SDS011;46836;48.388;16.210;2023-08-30T09:10:47;1.23;;;1.13;;
45684;SDS011;46836;48.388;16.210;2023-08-30T09:13:17;1.00;;;1.00;;
45684;SDS011;46836;48.388;16.210;2023-08-30T09:15:44;1.40;;;1.30;;
45684;SDS011;46836;48.388;16.210;2023-08-30T09:18:17;1.10;;;1.07;;
45684;SDS011;46836;48.388;16.210;2023-08-30T09:20:45;1.50;;;1.40;;
45684;SDS011;46836;48.388;16.210;2023-08-30T09:23:16;1.60;;;1.50;;
45684;SDS011;46836;48.388;16.210;2023-08-30T09:25:47;1.80;;;1.20;;
45684;SDS011;46836;48.388;16.210;2023-08-30T09:28:20;1.30;;;1.20;;
45684;SDS011;46836;48.388;16.210;2023-08-30T09:30:50;1.60;;;1.50;;
45684;SDS011;46836;48.388;16.210;2023-08-30T09:33:30;4.33;;;1.17;;
45684;SDS011;46836;48.388;16.210;2023-08-30T09:35:59;1.30;;;1.20;;
45684;SDS011;46836;48.388;16.210;2023-08-30T09:38:26;1.50;;;1.40;;
45684;SDS011;46836;48.388;16.210;2023-08-30T09:41:03;1.00;;;1.00;;
45684;SDS011;46836;48.388;16.210;2023-08-30T09:43:31;1.47;;;1.37;;
45684;SDS011;46836;48.388;16.210;2023-08-30T09:46:03;1.43;;;1.30;;
45684;SDS011;46836;48.388;16.210;2023-08-30T09:48:31;2.27;;;1.63;;
45684;SDS011;46836;48.388;16.210;2023-08-30T09:50:59;5.80;;;1.20;;
45684;SDS011;46836;48.388;16.210;2023-08-30T09:53:29;2.93;;;1.00;;
45684;SDS011;46836;48.388;16.210;2023-08-30T09:56:14;1.07;;;1.00;;
45684;SDS011;46836;48.388;16.210;2023-08-30T09:58:43;3.73;;;1.17;;
45684;SDS011;46836;48.388;16.210;2023-08-30T10:01:10;0.90;;;0.90;;
45684;SDS011;46836;48.388;16.210;2023-08-30T10:03:38;2.73;;;1.10;;
45684;SDS011;46836;48.388;16.210;2023-08-30T10:06:07;1.63;;;0.90;;
45684;SDS011;46836;48.388;16.210;2023-08-30T10:08:34;1.97;;;1.00;;
45684;SDS011;46836;48.388;16.210;2023-08-30T10:11:03;1.20;;;1.10;;
45684;SDS011;46836;48.388;16.210;2023-08-30T10:13:32;0.87;;;0.87;;
45684;SDS011;46836;48.388;16.210;2023-08-30T10:16:01;2.30;;;1.70;;
45684;SDS011;46836;48.388;16.210;2023-08-30T10:18:31;0.90;;;0.90;;
45684;SDS011;46836;48.388;16.210;2023-08-30T10:20:59;1.00;;;0.90;;
45684;SDS011;46836;48.388;16.210;2023-08-30T10:23:29;1.13;;;1.00;;
45684;SDS011;46836;48.388;16.210;2023-08-30T10:25:57;1.40;;;1.30;;
45684;SDS011;46836;48.388;16.210;2023-08-30T10:28:25;1.10;;;1.10;;
45684;SDS011;46836;48.388;16.210;2023-08-30T10:30:54;4.93;;;1.20;;
45684;SDS011;46836;48.388;16.210;2023-08-30T10:33:21;2.03;;;1.40;;
45684;SDS011;46836;48.388;16.210;2023-08-30T10:35:52;1.63;;;1.53;;
45684;SDS011;46836;48.388;16.210;2023-08-30T10:38:25;1.47;;;1.37;;
45684;SDS011;46836;48.388;16.210;2023-08-30T10:40:54;2.17;;;1.97;;
45684;SDS011;46836;48.388;16.210;2023-08-30T10:43:29;3.27;;;1.50;;
45684;SDS011;46836;48.388;16.210;2023-08-30T10:45:59;1.70;;;1.60;;
45684;SDS011;46836;48.388;16.210;2023-08-30T10:48:34;1.67;;;1.57;;
45684;SDS011;46836;48.388;16.210;2023-08-30T10:51:21;1.50;;;1.40;;
45684;SDS011;46836;48.388;16.210;2023-08-30T10:56:47;1.60;;;1.50;;
45684;SDS011;46836;48.388;16.210;2023-08-30T10:59:21;1.50;;;1.40;;
45684;SDS011;46836;48.388;16.210;2023-08-30T11:01:50;1.70;;;1.60;;
45684;SDS011;46836;48.388;16.210;2023-08-30T11:04:19;2.60;;;2.10;;
45684;SDS011;46836;48.388;16.210;2023-08-30T11:06:49;1.60;;;1.50;;
45684;SDS011;46836;48.388;16.210;2023-08-30T11:09:20;1.30;;;1.20;;
45684;SDS011;46836;48.388;16.210;2023-08-30T11:11:49;5.07;;;2.10;;
45684;SDS011;46836;48.388;16.210;2023-08-30T11:14:18;3.57;;;1.50;;
45684;SDS011;46836;48.388;16.210;2023-08-30T11:16:45;1.43;;;1.33;;
45684;SDS011;46836;48.388;16.210;2023-08-30T11:19:12;2.03;;;1.30;;
45684;SDS011;46836;48.388;16.210;2023-08-30T11:21:41;1.80;;;1.50;;
45684;SDS011;46836;48.388;16.210;2023-08-30T11:24:10;1.20;;;1.10;;
45684;SDS011;46836;48.388;16.210;2023-08-30T11:26:38;3.93;;;1.50;;
45684;SDS011;46836;48.388;16.210;2023-08-30T11:29:08;5.33;;;1.60;;
45684;SDS011;46836;48.388;16.210;2023-08-30T11:31:36;6.43;;;1.63;;
45684;SDS011;46836;48.388;16.210;2023-08-30T11:34:03;1.60;;;1.50;;
45684;SDS011;46836;48.388;16.210;2023-08-30T11:36:31;8.00;;;2.93;;
45684;SDS011;46836;48.388;16.210;2023-08-30T11:39:01;1.50;;;1.40;;
45684;SDS011;46836;48.388;16.210;2023-08-30T11:41:30;3.67;;;1.80;;
45684;SDS011;46836;48.388;16.210;2023-08-30T11:43:58;1.87;;;1.77;;
45684;SDS011;46836;48.388;16.210;2023-08-30T11:46:26;4.90;;;2.17;;
45684;SDS011;46836;48.388;16.210;2023-08-30T11:48:53;2.70;;;2.10;;
45684;SDS011;46836;48.388;16.210;2023-08-30T11:51:20;2.53;;;2.33;;
45684;SDS011;46836;48.388;16.210;2023-08-30T11:53:47;2.10;;;2.00;;
45684;SDS011;46836;48.388;16.210;2023-08-30T11:56:16;2.67;;;2.47;;
45684;SDS011;46836;48.388;16.210;2023-08-30T11:58:44;2.70;;;2.50;;
45684;SDS011;46836;48.388;16.210;2023-08-30T12:01:11;3.70;;;2.80;;
45684;SDS011;46836;48.388;16.210;2023-08-30T12:03:40;3.17;;;2.53;;
45684;SDS011;46836;48.388;16.210;2023-08-30T12:06:10;2.40;;;2.20;;
45684;SDS011;46836;48.388;16.210;2023-08-30T12:08:38;3.30;;;3.00;;
45684;SDS011;46836;48.388;16.210;2023-08-30T12:11:06;2.90;;;2.70;;
45684;SDS011;46836;48.388;16.210;2023-08-30T12:13:47;3.63;;;2.33;;
45684;SDS011;46836;48.388;16.210;2023-08-30T12:16:17;2.60;;;2.40;;
45684;SDS011;46836;48.388;16.210;2023-08-30T12:18:44;2.70;;;2.50;;
45684;SDS011;46836;48.388;16.210;2023-08-30T12:21:12;2.90;;;2.40;;
45684;SDS011;46836;48.388;16.210;2023-08-30T12:23:40;2.30;;;2.10;;
45684;SDS011;46836;48.388;16.210;2023-08-30T12:26:08;2.60;;;2.13;;
45684;SDS011;46836;48.388;16.210;2023-08-30T12:28:39;3.10;;;1.70;;
45684;SDS011;46836;48.388;16.210;2023-08-30T12:31:11;6.10;;;1.93;;
45684;SDS011;46836;48.388;16.210;2023-08-30T12:33:38;1.60;;;1.30;;
45684;SDS011;46836;48.388;16.210;2023-08-30T12:36:07;2.50;;;1.40;;
45684;SDS011;46836;48.388;16.210;2023-08-30T12:38:34;5.50;;;1.53;;
45684;SDS011;46836;48.388;16.210;2023-08-30T12:41:01;1.40;;;1.30;;
45684;SDS011;46836;48.388;16.210;2023-08-30T12:43:28;5.33;;;1.30;;
45684;SDS011;46836;48.388;16.210;2023-08-30T12:45:55;6.83;;;2.07;;
45684;SDS011;46836;48.388;16.210;2023-08-30T12:48:23;1.73;;;1.30;;
45684;SDS011;46836;48.388;16.210;2023-08-30T12:50:50;1.40;;;1.30;;
45684;SDS011;46836;48.388;16.210;2023-08-30T12:53:17;1.30;;;1.20;;
45684;SDS011;46836;48.388;16.210;2023-08-30T12:55:44;1.30;;;1.20;;
45684;SDS011;46836;48.388;16.210;2023-08-30T12:58:11;1.47;;;1.30;;
45684;SDS011;46836;48.388;16.210;2023-08-30T13:00:40;1.33;;;1.23;;
45684;SDS011;46836;48.388;16.210;2023-08-30T13:03:07;1.20;;;1.10;;
45684;SDS011;46836;48.388;16.210;2023-08-30T13:05:35;1.10;;;0.93;;
45684;SDS011;46836;48.388;16.210;2023-08-30T13:08:03;1.17;;;1.00;;
45684;SDS011;46836;48.388;16.210;2023-08-30T13:10:30;1.40;;;1.30;;
45684;SDS011;46836;48.388;16.210;2023-08-30T13:12:58;1.10;;;1.10;;
45684;SDS011;46836;48.388;16.210;2023-08-30T13:15:25;1.10;;;1.00;;
45684;SDS011;46836;48.388;16.210;2023-08-30T13:17:52;1.17;;;1.07;;
45684;SDS011;46836;48.388;16.210;2023-08-30T13:20:19;1.00;;;1.00;;
45684;SDS011;46836;48.388;16.210;2023-08-30T13:22:47;1.17;;;1.07;;
45684;SDS011;46836;48.388;16.210;2023-08-30T13:25:14;1.20;;;1.10;;
45684;SDS011;46836;48.388;16.210;2023-08-30T13:27:41;1.20;;;1.10;;
45684;SDS011;46836;48.388;16.210;2023-08-30T13:30:08;1.70;;;1.10;;
45684;SDS011;46836;48.388;16.210;2023-08-30T13:32:36;1.20;;;1.10;;
45684;SDS011;46836;48.388;16.210;2023-08-30T13:35:04;2.73;;;1.20;;
45684;SDS011;46836;48.388;16.210;2023-08-30T13:37:31;1.17;;;1.10;;
45684;SDS011;46836;48.388;16.210;2023-08-30T13:39:59;0.93;;;0.93;;
45684;SDS011;46836;48.388;16.210;2023-08-30T13:42:26;2.00;;;0.97;;
45684;SDS011;46836;48.388;16.210;2023-08-30T13:44:54;1.13;;;1.00;;
45684;SDS011;46836;48.388;16.210;2023-08-30T13:47:21;0.90;;;0.90;;
45684;SDS011;46836;48.388;16.210;2023-08-30T13:49:48;0.93;;;0.93;;
45684;SDS011;46836;48.388;16.210;2023-08-30T13:52:15;1.60;;;0.90;;
45684;SDS011;46836;48.388;16.210;2023-08-30T13:54:43;2.70;;;1.27;;
45684;SDS011;46836;48.388;16.210;2023-08-30T13:57:10;1.30;;;1.20;;
45684;SDS011;46836;48.388;16.210;2023-08-30T13:59:37;3.30;;;1.30;;
45684;SDS011;46836;48.388;16.210;2023-08-30T14:02:05;1.20;;;1.10;;
45684;SDS011;46836;48.388;16.210;2023-08-30T14:04:33;1.20;;;1.10;;
45684;SDS011;46836;48.388;16.210;2023-08-30T14:07:00;1.70;;;1.40;;
45684;SDS011;46836;48.388;16.210;2023-08-30T14:09:27;1.40;;;1.20;;
45684;SDS011;46836;48.388;16.210;2023-08-30T14:11:55;1.60;;;1.50;;
45684;SDS011;46836;48.388;16.210;2023-08-30T14:14:22;1.60;;;1.50;;
45684;SDS011;46836;48.388;16.210;2023-08-30T14:16:49;2.10;;;1.30;;
45684;SDS011;46836;48.388;16.210;2023-08-30T14:19:17;2.00;;;1.70;;
45684;SDS011;46836;48.388;16.210;2023-08-30T14:21:44;4.33;;;1.30;;
45684;SDS011;46836;48.388;16.210;2023-08-30T14:24:11;1.53;;;1.43;;
45684;SDS011;46836;48.388;16.210;2023-08-30T14:26:38;1.53;;;1.43;;
45684;SDS011;46836;48.388;16.210;2023-08-30T14:29:06;1.20;;;1.10;;
45684;SDS011;46836;48.388;16.210;2023-08-30T14:31:33;1.30;;;1.20;;
45684;SDS011;46836;48.388;16.210;2023-08-30T14:34:01;1.43;;;1.33;;
45684;SDS011;46836;48.388;16.210;2023-08-30T14:36:29;1.40;;;1.30;;
45684;SDS011;46836;48.388;16.210;2023-08-30T14:38:57;1.53;;;1.43;;
45684;SDS011;46836;48.388;16.210;2023-08-30T14:41:24;2.10;;;1.67;;
45684;SDS011;46836;48.388;16.210;2023-08-30T14:43:51;1.60;;;1.50;;
45684;SDS011;46836;48.388;16.210;2023-08-30T14:46:19;2.80;;;1.63;;
45684;SDS011;46836;48.388;16.210;2023-08-30T14:48:50;1.80;;;1.70;;